createdAt,value
2023-04-26T00:00:55.460Z,434.40
2023-04-26T00:03:25.496Z,389.50
2023-04-26T00:05:55.643Z,448.35
2023-04-26T00:08:23.965Z,455.60
2023-04-26T00:10:52.234Z,457.10
2023-04-26T00:13:20.812Z,444.67
2023-04-26T00:15:49.165Z,429.77
2023-04-26T00:18:17.731Z,422.42
2023-04-26T00:20:46.252Z,434.25
2023-04-26T00:23:16.110Z,435.75
2023-04-26T00:25:44.563Z,370.10
2023-04-26T00:28:12.892Z,335.98
2023-04-26T00:30:42.256Z,315.75
2023-04-26T00:33:10.608Z,349.20
2023-04-26T00:35:39.553Z,395.98
2023-04-26T00:38:08.140Z,316.23
2023-04-26T00:40:37.828Z,422.63
2023-04-26T00:43:07.882Z,337.17
2023-04-26T00:45:36.379Z,399.35
2023-04-26T00:48:05.056Z,292.55
2023-04-26T00:50:33.659Z,340.63
2023-04-26T00:53:04.101Z,414.73
2023-04-26T00:55:32.981Z,284.58
2023-04-26T00:58:02.817Z,418.77
2023-04-26T01:00:31.180Z,397.17
2023-04-26T01:02:59.638Z,408.45
2023-04-26T01:05:28.014Z,351.58
2023-04-26T01:07:56.650Z,432.15
2023-04-26T01:10:25.628Z,364.02
2023-04-26T01:12:54.070Z,394.10
2023-04-26T01:15:23.860Z,414.98
2023-04-26T01:17:52.459Z,413.98
2023-04-26T01:20:21.419Z,362.35
2023-04-26T01:22:52.072Z,374.08
2023-04-26T01:25:20.671Z,393.83
2023-04-26T01:27:49.049Z,375.85
2023-04-26T01:30:17.359Z,315.80
2023-04-26T01:32:46.071Z,360.25
2023-04-26T01:35:14.867Z,308.92
2023-04-26T01:37:43.405Z,344.77
2023-04-26T01:40:14.259Z,408.65
2023-04-26T01:42:42.694Z,320.13
2023-04-26T01:45:12.240Z,419.98
2023-04-26T01:47:40.695Z,318.30
2023-04-26T01:50:10.769Z,359.35
2023-04-26T01:52:39.117Z,339.20
2023-04-26T01:55:08.755Z,373.80
2023-04-26T01:57:38.484Z,415.27
2023-04-26T02:00:08.686Z,398.17
2023-04-26T02:02:37.158Z,370.00
2023-04-26T02:05:06.367Z,388.77
2023-04-26T02:07:34.810Z,361.55
2023-04-26T02:10:03.476Z,410.90
2023-04-26T02:12:32.060Z,396.70
2023-04-26T02:15:01.796Z,369.65
2023-04-26T02:17:30.777Z,404.20
2023-04-26T02:19:59.196Z,401.33
2023-04-26T02:22:27.872Z,422.40
2023-04-26T02:24:56.442Z,417.52
2023-04-26T02:27:24.745Z,425.67
2023-04-26T02:29:53.033Z,434.42
2023-04-26T02:32:22.914Z,408.30
2023-04-26T02:34:51.552Z,429.25
2023-04-26T02:37:21.819Z,407.77
2023-04-26T02:39:52.133Z,412.83
2023-04-26T02:42:20.529Z,417.55
2023-04-26T02:44:48.905Z,430.48
2023-04-26T02:47:21.273Z,440.23
2023-04-26T02:49:52.402Z,447.98
2023-04-26T02:52:20.716Z,414.52
2023-04-26T02:54:49.095Z,443.20
2023-04-26T02:57:17.349Z,441.02
2023-04-26T02:59:45.693Z,456.88
2023-04-26T03:02:14.273Z,437.67
2023-04-26T03:04:42.653Z,442.05
2023-04-26T03:07:12.468Z,452.17
2023-04-26T03:09:40.922Z,424.63
2023-04-26T03:12:09.491Z,445.45
2023-04-26T03:14:37.879Z,459.67
2023-04-26T03:17:06.229Z,432.35
2023-04-26T03:19:34.624Z,451.73
2023-04-26T03:22:02.985Z,465.17
2023-04-26T03:24:32.728Z,451.30
2023-04-26T03:27:01.144Z,476.52
2023-04-26T03:29:29.491Z,486.48
2023-04-26T03:31:58.058Z,505.95
2023-04-26T03:34:27.349Z,480.42
2023-04-26T03:36:55.939Z,539.22
2023-04-26T03:39:24.547Z,528.13
2023-04-26T03:41:54.309Z,538.05
2023-04-26T03:44:22.759Z,560.67
2023-04-26T03:46:51.401Z,539.95
2023-04-26T03:49:20.030Z,533.30
2023-04-26T03:51:48.545Z,554.72
2023-04-26T03:54:17.501Z,544.03
2023-04-26T03:56:46.046Z,549.65
2023-04-26T03:59:16.083Z,552.75
2023-04-26T04:01:44.447Z,547.58
2023-04-26T04:04:13.004Z,546.33
2023-04-26T04:06:41.540Z,538.85
2023-04-26T04:09:09.894Z,558.78
2023-04-26T04:11:38.198Z,565.72
2023-04-26T04:14:07.321Z,570.35
2023-04-26T04:16:37.070Z,540.65
2023-04-26T04:19:05.501Z,543.13
2023-04-26T04:21:34.110Z,566.63
2023-04-26T04:24:03.209Z,557.95
2023-04-26T04:26:31.829Z,563.13
2023-04-26T04:29:08.679Z,558.92
2023-04-26T04:31:39.968Z,537.80
2023-04-26T04:34:21.449Z,560.45
2023-04-26T04:36:50.541Z,565.33
2023-04-26T04:39:19.029Z,553.75
2023-04-26T04:41:48.962Z,539.35
2023-04-26T04:44:17.454Z,591.70
2023-04-26T04:46:47.337Z,549.88
2023-04-26T04:49:16.034Z,559.20
2023-04-26T04:51:44.587Z,544.55
2023-04-26T04:54:13.747Z,496.77
2023-04-26T04:56:42.645Z,512.42
2023-04-26T04:59:11.288Z,473.70
2023-04-26T05:01:39.657Z,456.23
2023-04-26T05:04:09.614Z,502.05
2023-04-26T05:06:38.457Z,504.60
2023-04-26T05:09:06.944Z,425.15
2023-04-26T05:11:35.393Z,353.38
2023-04-26T05:14:03.745Z,393.73
2023-04-26T05:16:32.565Z,359.10
2023-04-26T05:19:00.996Z,450.13
2023-04-26T05:21:31.589Z,621.40
2023-04-26T05:23:59.947Z,395.58
2023-04-26T05:26:28.298Z,358.08
2023-04-26T05:28:56.696Z,327.52
2023-04-26T05:31:25.205Z,422.27
2023-04-26T05:33:53.672Z,390.35
2023-04-26T05:36:22.865Z,588.10
2023-04-26T05:38:52.638Z,379.50
2023-04-26T05:41:21.139Z,374.67
2023-04-26T05:43:49.641Z,450.27
2023-04-26T05:46:18.240Z,555.83
2023-04-26T05:48:46.694Z,556.03
2023-04-26T05:51:15.090Z,348.70
2023-04-26T05:53:43.442Z,431.42
2023-04-26T05:56:13.125Z,385.80
2023-04-26T05:58:41.893Z,520.70
2023-04-26T06:01:10.232Z,369.65
2023-04-26T06:03:39.034Z,422.60
2023-04-26T06:06:08.010Z,441.27
2023-04-26T06:08:36.427Z,636.80
2023-04-26T06:11:05.414Z,463.60
2023-04-26T06:13:35.273Z,384.52
2023-04-26T06:16:03.610Z,352.35
2023-04-26T06:18:31.950Z,552.00
2023-04-26T06:21:00.358Z,421.92
2023-04-26T06:23:28.702Z,483.45
2023-04-26T06:25:57.109Z,320.27
2023-04-26T06:28:25.516Z,473.08
2023-04-26T06:30:55.342Z,349.80
2023-04-26T06:33:23.681Z,301.65
2023-04-26T06:35:52.290Z,352.27
2023-04-26T06:38:21.007Z,477.30
2023-04-26T06:40:49.325Z,405.67
2023-04-26T06:43:18.029Z,384.45
2023-04-26T06:45:46.458Z,369.00
2023-04-26T06:48:16.363Z,377.02
2023-04-26T06:50:44.716Z,435.17
2023-04-26T06:53:13.077Z,489.17
2023-04-26T06:55:41.450Z,454.08
2023-04-26T06:58:09.860Z,214.45
2023-04-26T07:00:38.195Z,519.63
2023-04-26T07:03:06.734Z,247.95
2023-04-26T07:05:36.512Z,259.70
2023-04-26T07:08:04.971Z,302.02
2023-04-26T07:10:34.257Z,390.58
2023-04-26T07:13:02.810Z,486.25
2023-04-26T07:15:31.258Z,265.83
2023-04-26T07:17:59.647Z,358.00
2023-04-26T07:20:27.999Z,353.05
2023-04-26T07:22:57.686Z,308.83
2023-04-26T07:25:26.155Z,374.13
2023-04-26T07:27:54.500Z,329.33
2023-04-26T07:30:23.119Z,284.45
2023-04-26T07:32:53.232Z,256.80
2023-04-26T07:35:21.951Z,321.55
2023-04-26T07:37:50.968Z,298.08
2023-04-26T07:40:22.740Z,261.80
2023-04-26T07:42:51.072Z,278.75
2023-04-26T07:45:19.557Z,297.42
2023-04-26T07:47:47.903Z,266.98
2023-04-26T07:50:16.727Z,367.13
2023-04-26T07:52:45.079Z,303.48
2023-04-26T07:55:14.130Z,314.00
2023-04-26T07:57:44.920Z,287.42
2023-04-26T08:00:15.868Z,337.38
2023-04-26T08:02:45.887Z,316.88
2023-04-26T08:05:14.807Z,498.88
2023-04-26T08:07:43.860Z,288.80
2023-04-26T08:10:12.778Z,279.30
2023-04-26T08:12:41.209Z,289.35
2023-04-26T08:15:12.528Z,419.08
2023-04-26T08:17:41.695Z,266.92
2023-04-26T08:20:11.030Z,308.75
2023-04-26T08:22:39.369Z,401.05
2023-04-26T08:25:08.288Z,264.98
2023-04-26T08:27:37.392Z,342.30
2023-04-26T08:30:06.701Z,336.67
2023-04-26T08:32:36.573Z,204.93
2023-04-26T08:35:05.686Z,231.95
2023-04-26T08:37:34.724Z,252.63
2023-04-26T08:40:04.119Z,314.73
2023-04-26T08:42:33.174Z,291.55
2023-04-26T08:45:03.675Z,258.48
2023-04-26T08:47:43.810Z,266.40
2023-04-26T08:50:14.827Z,266.27
2023-04-26T08:52:44.430Z,180.90
2023-04-26T08:55:14.500Z,284.73
2023-04-26T08:57:43.546Z,493.15
2023-04-26T09:00:13.513Z,213.50
2023-04-26T09:02:44.261Z,221.90
2023-04-26T09:05:13.110Z,288.08
2023-04-26T09:07:46.906Z,201.65
2023-04-26T09:10:21.109Z,263.40
2023-04-26T09:15:21.697Z,315.60
2023-04-26T09:17:52.576Z,269.77
2023-04-26T09:20:23.737Z,348.95
2023-04-26T09:22:52.993Z,249.32
2023-04-26T09:25:28.167Z,256.77
2023-04-26T09:27:56.628Z,233.65
2023-04-26T09:30:25.353Z,413.77
2023-04-26T09:32:56.556Z,319.58
2023-04-26T09:35:30.288Z,286.52
2023-04-26T09:38:05.598Z,274.33
2023-04-26T09:40:39.091Z,376.95
2023-04-26T09:43:09.323Z,400.88
2023-04-26T09:45:46.132Z,208.98
2023-04-26T09:48:17.616Z,210.82
2023-04-26T09:50:46.956Z,365.88
2023-04-26T09:53:28.202Z,371.33
2023-04-26T09:55:56.628Z,180.48
2023-04-26T09:58:24.958Z,319.50
2023-04-26T10:00:54.537Z,315.23
2023-04-26T10:03:24.847Z,286.65
2023-04-26T10:05:53.929Z,303.45
2023-04-26T10:08:22.260Z,203.75
2023-04-26T10:10:51.353Z,207.73
2023-04-26T10:13:20.790Z,251.00
2023-04-26T10:15:50.044Z,232.82
2023-04-26T10:18:18.701Z,258.40
2023-04-26T10:20:53.012Z,326.98
2023-04-26T10:23:22.585Z,188.55
2023-04-26T10:25:50.954Z,204.38
2023-04-26T10:28:20.014Z,260.80
2023-04-26T10:30:57.862Z,307.90
2023-04-26T10:33:27.263Z,216.20
2023-04-26T10:36:10.980Z,277.70
2023-04-26T10:38:40.879Z,258.75
2023-04-26T10:41:31.939Z,258.90
2023-04-26T10:44:01.876Z,345.00
2023-04-26T10:46:40.939Z,294.80
2023-04-26T10:49:20.085Z,233.38
2023-04-26T10:52:15.095Z,241.80
2023-04-26T10:54:52.490Z,224.55
2023-04-26T10:57:21.630Z,272.98
2023-04-26T11:00:22.221Z,309.90
2023-04-26T11:02:59.439Z,323.15
2023-04-26T11:05:42.961Z,384.15
2023-04-26T11:08:21.538Z,289.50
2023-04-26T11:10:58.247Z,213.77
2023-04-26T11:13:26.850Z,237.23
2023-04-26T11:15:55.895Z,214.57
2023-04-26T11:18:24.906Z,206.25
2023-04-26T11:20:53.718Z,251.32
2023-04-26T11:23:24.869Z,229.65
2023-04-26T11:25:54.962Z,232.32
2023-04-26T11:28:23.455Z,248.23
2023-04-26T11:30:52.072Z,230.15
2023-04-26T11:33:23.042Z,301.73
2023-04-26T11:35:52.018Z,215.63
2023-04-26T11:38:24.070Z,222.05
2023-04-26T11:40:56.257Z,315.35
2023-04-26T11:43:30.279Z,214.05
2023-04-26T11:46:01.557Z,246.93
2023-04-26T11:48:30.189Z,212.77
2023-04-26T11:50:59.531Z,250.23
2023-04-26T11:53:37.492Z,264.58
2023-04-26T11:56:06.522Z,230.73
2023-04-26T11:58:35.001Z,236.93
2023-04-26T12:01:03.994Z,322.13
2023-04-26T12:03:33.944Z,290.00
2023-04-26T12:06:02.952Z,275.92
2023-04-26T12:08:34.595Z,212.25
2023-04-26T12:11:04.244Z,258.98
2023-04-26T12:13:33.011Z,250.65
2023-04-26T12:16:01.754Z,269.48
2023-04-26T12:18:33.102Z,253.02
2023-04-26T12:21:02.244Z,263.70
2023-04-26T12:23:40.825Z,285.67
2023-04-26T12:26:11.185Z,214.68
2023-04-26T12:28:40.035Z,230.45
2023-04-26T12:31:08.730Z,325.75
2023-04-26T12:33:37.474Z,292.55
2023-04-26T12:36:13.401Z,241.70
2023-04-26T12:38:43.366Z,265.45
2023-04-26T12:41:11.739Z,211.25
2023-04-26T12:43:40.194Z,221.63
2023-04-26T12:46:08.834Z,301.80
2023-04-26T12:48:37.286Z,237.13
2023-04-26T12:51:06.939Z,288.23
2023-04-26T12:53:35.408Z,276.00
2023-04-26T12:56:05.774Z,282.85
2023-04-26T12:58:34.247Z,279.98
2023-04-26T13:01:02.720Z,428.35
2023-04-26T13:03:31.277Z,287.17
2023-04-26T13:05:59.936Z,313.52
2023-04-26T13:08:28.465Z,241.63
2023-04-26T13:10:57.074Z,215.70
2023-04-26T13:13:42.900Z,274.77
2023-04-26T13:16:13.359Z,253.60
2023-04-26T13:18:42.471Z,462.45
2023-04-26T13:21:10.976Z,315.13
2023-04-26T13:23:39.451Z,230.30
2023-04-26T13:26:08.018Z,368.17
2023-04-26T13:28:38.277Z,226.13
2023-04-26T13:31:07.405Z,229.52
2023-04-26T13:33:36.032Z,243.85
2023-04-26T13:36:04.660Z,251.43
2023-04-26T13:38:33.212Z,290.30
2023-04-26T13:41:01.703Z,257.52
2023-04-26T13:43:30.458Z,298.48
2023-04-26T13:46:00.870Z,246.88
2023-04-26T13:48:29.347Z,270.92
2023-04-26T13:50:58.855Z,251.15
2023-04-26T13:53:27.347Z,272.60
2023-04-26T13:55:55.757Z,332.20
2023-04-26T13:58:24.170Z,258.08
2023-04-26T14:00:52.698Z,260.42
2023-04-26T14:03:22.807Z,341.60
2023-04-26T14:05:51.386Z,276.98
2023-04-26T14:08:19.762Z,284.88
2023-04-26T14:10:48.144Z,307.92
2023-04-26T14:13:17.165Z,345.35
2023-04-26T14:15:48.192Z,361.83
2023-04-26T14:18:17.419Z,268.20
2023-04-26T14:20:48.172Z,418.33
2023-04-26T14:23:16.880Z,264.15
2023-04-26T14:25:45.283Z,376.58
2023-04-26T14:28:17.462Z,293.30
2023-04-26T14:30:46.263Z,336.42
2023-04-26T14:33:14.923Z,247.48
2023-04-26T14:35:43.568Z,255.35
2023-04-26T14:38:14.209Z,279.67
2023-04-26T14:40:43.036Z,250.70
2023-04-26T14:43:11.952Z,301.25
2023-04-26T14:45:44.531Z,240.70
2023-04-26T14:48:26.480Z,305.15
2023-04-26T14:51:01.017Z,304.60
2023-04-26T14:53:37.033Z,228.93
2023-04-26T14:56:07.964Z,306.17
2023-04-26T14:58:37.177Z,284.30
2023-04-26T15:01:06.685Z,447.63
2023-04-26T15:03:49.095Z,244.60
2023-04-26T15:06:43.846Z,265.40
2023-04-26T15:09:14.363Z,348.77
2023-04-26T15:11:42.785Z,304.95
2023-04-26T15:14:11.214Z,254.18
2023-04-26T15:16:39.716Z,264.05
2023-04-26T15:19:08.624Z,289.17
2023-04-26T15:21:37.016Z,271.25
2023-04-26T15:24:07.643Z,335.60
2023-04-26T15:26:37.654Z,353.30
2023-04-26T15:29:06.296Z,256.13
2023-04-26T15:31:35.151Z,284.17
2023-04-26T15:34:04.786Z,243.73
2023-04-26T15:36:33.427Z,244.73
2023-04-26T15:39:01.954Z,299.42
2023-04-26T15:41:30.445Z,303.92
2023-04-26T15:44:00.784Z,309.58
2023-04-26T15:46:29.371Z,288.70
2023-04-26T15:48:57.951Z,319.92
2023-04-26T15:51:26.687Z,246.35
2023-04-26T15:53:55.482Z,346.60
2023-04-26T15:56:24.056Z,255.98
2023-04-26T15:58:52.663Z,322.13
2023-04-26T16:01:22.521Z,263.60
2023-04-26T16:03:52.814Z,309.08
2023-04-26T16:06:21.342Z,347.20
2023-04-26T16:08:49.767Z,323.45
2023-04-26T16:11:18.244Z,451.00
2023-04-26T16:13:51.733Z,282.77
2023-04-26T16:16:21.689Z,284.50
2023-04-26T16:18:50.250Z,382.45
2023-04-26T16:21:19.063Z,246.90
2023-04-26T16:23:49.487Z,324.25
2023-04-26T16:26:17.890Z,335.08
2023-04-26T16:28:46.323Z,435.80
2023-04-26T16:31:15.034Z,261.10
2023-04-26T16:33:44.879Z,403.08
2023-04-26T16:36:13.296Z,357.20
2023-04-26T16:38:41.766Z,332.33
2023-04-26T16:41:10.510Z,545.47
2023-04-26T16:43:39.043Z,344.15
2023-04-26T16:46:09.962Z,313.05
2023-04-26T16:48:39.542Z,269.08
2023-04-26T16:51:09.516Z,256.15
2023-04-26T16:53:38.399Z,404.85
2023-04-26T16:56:07.767Z,343.73
2023-04-26T16:58:36.271Z,351.98
2023-04-26T17:01:04.994Z,288.77
2023-04-26T17:03:33.680Z,274.20
2023-04-26T17:06:02.513Z,320.95
2023-04-26T17:08:32.311Z,329.80
2023-04-26T17:11:01.366Z,412.50
2023-04-26T17:13:32.923Z,381.35
2023-04-26T17:16:02.070Z,335.60
2023-04-26T17:18:30.709Z,359.40
2023-04-26T17:20:59.150Z,260.80
2023-04-26T17:23:27.678Z,309.08
2023-04-26T17:25:57.580Z,384.52
2023-04-26T17:28:26.302Z,300.55
2023-04-26T17:30:54.777Z,295.33
2023-04-26T17:33:23.311Z,458.85
2023-04-26T17:35:51.928Z,465.30
2023-04-26T17:38:20.678Z,423.75
2023-04-26T17:40:54.641Z,401.83
2023-04-26T17:43:24.643Z,687.13
2023-04-26T17:45:53.245Z,384.05
2023-04-26T17:48:22.256Z,418.20
2023-04-26T17:50:52.935Z,318.52
2023-04-26T17:53:22.030Z,328.05
2023-04-26T17:55:51.436Z,303.52
2023-04-26T17:58:20.215Z,342.75
2023-04-26T18:00:50.655Z,405.13
2023-04-26T18:03:20.648Z,448.48
2023-04-26T18:05:49.785Z,416.67
2023-04-26T18:08:18.417Z,534.45
2023-04-26T18:10:48.612Z,449.48
2023-04-26T18:13:18.278Z,378.63
2023-04-26T18:15:47.091Z,384.65
2023-04-26T18:18:17.539Z,415.75
2023-04-26T18:20:46.237Z,340.58
2023-04-26T18:23:14.855Z,450.38
2023-04-26T18:25:43.616Z,407.90
2023-04-26T18:28:18.410Z,337.35
2023-04-26T18:30:58.943Z,396.55
2023-04-26T18:33:48.152Z,384.10
2023-04-26T18:40:14.222Z,449.25
2023-04-26T18:42:45.078Z,400.27
2023-04-26T18:45:14.730Z,398.20
2023-04-26T18:47:46.527Z,377.27
2023-04-26T18:50:16.702Z,387.48
2023-04-26T18:52:45.244Z,376.10
2023-04-26T18:55:19.817Z,383.75
2023-04-26T19:00:17.234Z,383.33
2023-04-26T19:02:45.978Z,378.10
2023-04-26T19:05:16.155Z,397.42
2023-04-26T19:07:45.552Z,385.25
2023-04-26T19:10:16.243Z,391.60
2023-04-26T19:12:44.788Z,416.77
2023-04-26T19:15:14.208Z,575.08
2023-04-26T19:17:42.863Z,389.38
2023-04-26T19:20:16.930Z,453.48
2023-04-26T19:22:46.166Z,502.88
2023-04-26T19:25:26.796Z,578.53
2023-04-26T19:27:55.381Z,411.48
2023-04-26T19:30:24.098Z,400.98
2023-04-26T19:32:52.560Z,397.60
2023-04-26T19:35:22.393Z,425.70
2023-04-26T19:37:50.918Z,418.35
2023-04-26T19:40:19.469Z,393.52
2023-04-26T19:42:48.107Z,400.73
2023-04-26T19:45:20.335Z,441.50
2023-04-26T19:47:49.413Z,395.45
2023-04-26T19:50:18.186Z,409.55
2023-04-26T19:52:48.237Z,625.28
2023-04-26T19:55:16.730Z,355.65
2023-04-26T19:57:45.188Z,386.95
2023-04-26T20:00:15.903Z,429.92
2023-04-26T20:02:44.577Z,379.67
2023-04-26T20:05:13.342Z,420.00
2023-04-26T20:07:42.026Z,410.95
2023-04-26T20:10:12.761Z,411.00
2023-04-26T20:12:47.338Z,414.38
2023-04-26T20:17:50.401Z,380.23
2023-04-26T20:20:18.922Z,372.20
2023-04-26T20:22:47.431Z,345.67
2023-04-26T20:25:19.722Z,401.88
2023-04-26T20:27:48.372Z,372.92
2023-04-26T20:30:17.050Z,391.92
2023-04-26T20:32:45.648Z,380.20
2023-04-26T20:35:14.154Z,370.83
2023-04-26T20:37:42.777Z,374.17
2023-04-26T20:40:11.875Z,372.13
2023-04-26T20:42:41.665Z,408.02
2023-04-26T20:45:11.428Z,365.70
2023-04-26T20:47:39.848Z,369.83
2023-04-26T20:50:09.382Z,359.98
2023-04-26T20:52:37.818Z,346.35
2023-04-26T20:55:07.150Z,350.20
2023-04-26T20:57:36.084Z,348.75
2023-04-26T21:00:07.491Z,341.52
2023-04-26T21:02:36.153Z,370.40
2023-04-26T21:05:05.427Z,343.92
2023-04-26T21:07:33.907Z,396.33
2023-04-26T21:10:02.367Z,368.15
2023-04-26T21:12:30.943Z,336.27
2023-04-26T21:14:59.521Z,325.25
2023-04-26T21:17:29.366Z,349.88
2023-04-26T21:19:57.783Z,387.27
2023-04-26T21:22:26.148Z,369.25
2023-04-26T21:24:54.576Z,333.38
2023-04-26T21:27:22.944Z,343.67
2023-04-26T21:29:51.342Z,335.70
2023-04-26T21:32:19.867Z,370.65
2023-04-26T21:34:49.702Z,324.25
2023-04-26T21:37:18.108Z,314.42
2023-04-26T21:39:46.577Z,309.73
2023-04-26T21:42:15.578Z,320.95
2023-04-26T21:44:44.031Z,335.05
2023-04-26T21:47:12.446Z,344.98
2023-04-26T21:49:40.939Z,339.55
2023-04-26T21:52:10.799Z,347.35
2023-04-26T21:54:39.609Z,344.88
2023-04-26T21:57:09.335Z,343.38
2023-04-26T21:59:42.040Z,334.88
2023-04-26T22:02:10.698Z,320.17
2023-04-26T22:04:39.178Z,334.75
2023-04-26T22:07:07.638Z,329.48
2023-04-26T22:09:37.590Z,340.40
2023-04-26T22:12:06.735Z,316.92
2023-04-26T22:14:35.154Z,328.27
2023-04-26T22:17:03.789Z,330.05
2023-04-26T22:19:32.421Z,301.50
2023-04-26T22:22:01.162Z,345.90
2023-04-26T22:24:29.625Z,344.70
2023-04-26T22:26:59.415Z,358.42
2023-04-26T22:29:33.127Z,335.83
2023-04-26T22:32:01.680Z,328.92
2023-04-26T22:34:30.553Z,324.27
2023-04-26T22:37:06.184Z,415.65
2023-04-26T22:39:38.303Z,326.00
2023-04-26T22:42:08.249Z,308.30
2023-04-26T22:44:37.371Z,319.40
2023-04-26T22:47:06.161Z,335.25
2023-04-26T22:49:34.641Z,327.35
2023-04-26T22:52:09.707Z,346.63
2023-04-26T22:54:45.609Z,332.40
2023-04-26T22:57:15.468Z,340.00
2023-04-26T22:59:44.025Z,312.38
2023-04-26T23:02:15.269Z,329.85
2023-04-26T23:04:43.888Z,340.45
2023-04-26T23:07:12.617Z,336.52
2023-04-26T23:09:41.248Z,338.13
2023-04-26T23:12:09.807Z,331.42
2023-04-26T23:14:39.667Z,329.35
2023-04-26T23:17:08.226Z,322.00
2023-04-26T23:19:37.161Z,336.40
2023-04-26T23:22:05.601Z,325.92
2023-04-26T23:24:34.049Z,347.33
2023-04-26T23:27:02.685Z,318.38
2023-04-26T23:29:31.424Z,340.23
2023-04-26T23:32:01.399Z,330.73
2023-04-26T23:34:29.839Z,327.20
2023-04-26T23:36:58.803Z,316.60
2023-04-26T23:39:36.772Z,310.38
2023-04-26T23:42:05.659Z,352.58
2023-04-26T23:44:34.066Z,330.23
2023-04-26T23:47:03.879Z,348.00
2023-04-26T23:49:32.320Z,333.27
2023-04-26T23:52:00.775Z,344.15
2023-04-26T23:54:29.253Z,320.70
2023-04-26T23:56:57.621Z,343.88
2023-04-26T23:59:26.159Z,330.70
